»·PEaware :: N825TJ KBOI-KBFI

N825TJ :: KBOI-KBFI

FLIGHT INFORMATION

Flight Status: Arrived
Operator: Privately registered:
United States
More flights under this callsign
Pilot: Tyler J. (19619)
Aircraft: CESSNA 525A CITATION CJ2
(C25A)
More flights by this aircraft type
Origin: KBOI Boise Air Terminal/Gowen
United States
Destination: KBFI Boeing Field/King Co Intl
United States
More flights between these airports :: More routes between these airports
Route: +BOI3 LICKS PREIS PDT CHINS3
File this flight plan on PilotEdge
Remarks:
Altitude:
(Current/Filed)
34,000ft
Speed:
(Current/Filed)
430kts
Departed: 28-Aug-18 08:22 PM
Arrived: 28-Aug-18 09:28 PM
Distance/Time
Traveled:
349nm/1:06
Distance/Time
To Go:
Arrived

Flight Plot

Page will automatically refresh every two minutes.

Flight plan parsing failed; only flown route is shown


Map Options




Map Legend


Flown Route
Filed Route
Departure Airport
Arrival Airport
Navaid (VOR, NDB)
Fix

Horizontal Profiles

Position Reports

Time Latitude Longitude Heading Altitude Ground
Speed
28-Aug-18 19:41 43.563639 -116.239436 176 2875ft 0kts
28-Aug-18 19:42 43.563639 -116.239436 176 2875ft 0kts
28-Aug-18 19:43 43.563639 -116.239436 176 2875ft 0kts
28-Aug-18 19:44 43.563639 -116.239436 176 2875ft 0kts
28-Aug-18 19:45 43.563639 -116.239436 176 2875ft 0kts
28-Aug-18 19:46 43.563639 -116.239436 176 2875ft 0kts
28-Aug-18 19:47 43.563639 -116.239436 176 2875ft 0kts
28-Aug-18 19:48 43.563639 -116.239436 176 2875ft 0kts
28-Aug-18 19:49 43.563639 -116.239436 176 2875ft 0kts
28-Aug-18 19:50 43.563639 -116.239436 176 2875ft 0kts
28-Aug-18 19:51 43.563639 -116.239436 176 2875ft 0kts
28-Aug-18 19:52 43.563639 -116.239436 176 2875ft 0kts
28-Aug-18 19:53 43.563639 -116.239436 176 2875ft 0kts
28-Aug-18 19:54 43.563639 -116.239436 176 2875ft 0kts
28-Aug-18 19:55 43.563639 -116.239436 176 2875ft 0kts
28-Aug-18 19:56 43.563639 -116.239436 176 2875ft 0kts
28-Aug-18 19:57 43.563639 -116.239436 176 2875ft 0kts
28-Aug-18 19:58 43.563639 -116.239436 176 2875ft 0kts
28-Aug-18 19:59 43.563639 -116.239436 176 2875ft 0kts
28-Aug-18 20:00 43.563639 -116.239436 176 2875ft 0kts
28-Aug-18 20:01 43.563639 -116.239436 176 2875ft 0kts
28-Aug-18 20:02 43.563639 -116.239436 176 2875ft 0kts
28-Aug-18 20:03 43.563639 -116.239436 176 2875ft 0kts
28-Aug-18 20:04 43.563639 -116.239436 176 2875ft 0kts
28-Aug-18 20:05 43.563639 -116.239436 176 2875ft 0kts
28-Aug-18 20:06 43.563639 -116.239436 176 2875ft 0kts
28-Aug-18 20:07 43.563639 -116.239436 176 2875ft 0kts
28-Aug-18 20:08 43.563639 -116.239436 176 2875ft 0kts
28-Aug-18 20:09 43.563639 -116.239436 176 2875ft 0kts
28-Aug-18 20:10 43.563639 -116.239436 176 2875ft 0kts
28-Aug-18 20:11 43.563639 -116.239436 176 2875ft 0kts
28-Aug-18 20:12 43.563639 -116.239436 176 2875ft 0kts
28-Aug-18 20:13 43.563746 -116.239636 25 2875ft 0kts
28-Aug-18 20:14 43.563748 -116.239635 25 2875ft 0kts
28-Aug-18 20:15 43.563760 -116.239628 25 2875ft 0kts
28-Aug-18 20:16 43.564255 -116.238294 66 2875ft 9kts
28-Aug-18 20:17 43.565257 -116.233295 64 2875ft 7kts
28-Aug-18 20:18 43.563937 -116.229283 117 2875ft 7kts
28-Aug-18 20:19 43.562750 -116.225402 115 2875ft 14kts
28-Aug-18 20:20 43.560943 -116.219976 114 2875ft 14kts
28-Aug-18 20:21 43.559553 -116.215825 115 2875ft 13kts
28-Aug-18 20:22 43.557938 -116.211022 114 2875ft 14kts
28-Aug-18 20:23 43.559748 -116.212461 295 2875ft 71kts
28-Aug-18 20:24 43.576366 -116.272782 284 5303ft 225kts
28-Aug-18 20:25 43.588776 -116.366488 297 8578ft 251kts
28-Aug-18 20:26 43.645172 -116.435138 334 12939ft 288kts
28-Aug-18 20:27 43.720818 -116.480381 335 16795ft 304kts
28-Aug-18 20:28 43.798494 -116.525677 334 19906ft 316kts
28-Aug-18 20:29 43.881307 -116.574107 334 22862ft 324kts
28-Aug-18 20:30 43.971780 -116.627394 334 24577ft 363kts
28-Aug-18 20:31 44.065973 -116.682924 334 26792ft 372kts
28-Aug-18 20:32 44.156786 -116.752737 319 28420ft 374kts
28-Aug-18 20:33 44.233744 -116.850560 313 29614ft 377kts
28-Aug-18 20:34 44.308825 -116.954087 313 30500ft 380kts
28-Aug-18 20:35 44.384320 -117.058681 313 31161ft 383kts
28-Aug-18 20:36 44.460048 -117.163736 313 31664ft 385kts
28-Aug-18 20:37 44.535558 -117.268744 313 32429ft 377kts
28-Aug-18 20:38 44.609240 -117.371541 313 33525ft 368kts
28-Aug-18 20:39 44.681538 -117.472828 313 34133ft 372kts
28-Aug-18 20:40 44.753684 -117.574295 313 34131ft 382kts
28-Aug-18 20:41 44.829368 -117.681092 313 34128ft 386kts
28-Aug-18 20:42 44.893417 -117.771790 313 34125ft 387kts
28-Aug-18 20:43 44.969211 -117.879511 313 34126ft 387kts
28-Aug-18 20:44 45.045078 -117.987781 313 34119ft 387kts
28-Aug-18 20:45 45.120914 -118.096439 313 34120ft 387kts
28-Aug-18 20:46 45.196513 -118.205199 313 34116ft 387kts
28-Aug-18 20:47 45.271808 -118.313958 313 34116ft 387kts
28-Aug-18 20:48 45.347328 -118.423489 313 34110ft 387kts
28-Aug-18 20:49 45.422376 -118.532775 313 34102ft 387kts
28-Aug-18 20:50 45.496930 -118.641784 313 34096ft 387kts
28-Aug-18 20:51 45.572070 -118.752105 313 34083ft 387kts
28-Aug-18 20:52 45.647033 -118.862702 313 34073ft 388kts
28-Aug-18 20:53 45.721846 -118.973779 313 34058ft 388kts
28-Aug-18 20:54 45.796632 -119.085523 313 34044ft 388kts
28-Aug-18 20:55 45.864556 -119.187634 313 34040ft 389kts
28-Aug-18 20:56 45.936840 -119.296949 313 34029ft 389kts
28-Aug-18 20:57 46.011227 -119.410154 312 34022ft 389kts
28-Aug-18 20:58 46.085324 -119.523638 312 34021ft 389kts
28-Aug-18 20:59 46.159474 -119.637932 312 34020ft 390kts
28-Aug-18 21:00 46.221665 -119.763153 292 33597ft 368kts
28-Aug-18 21:01 46.254781 -119.878674 299 29757ft 316kts
28-Aug-18 21:02 46.301263 -119.972388 310 28020ft 274kts
28-Aug-18 21:03 46.355370 -120.066075 310 26665ft 344kts
28-Aug-18 21:04 46.419394 -120.178087 310 25278ft 367kts
28-Aug-18 21:05 46.484467 -120.292632 310 24106ft 364kts
28-Aug-18 21:06 46.537116 -120.385787 310 24044ft 354kts
28-Aug-18 21:07 46.606272 -120.520735 306 23348ft 359kts
28-Aug-18 21:08 46.663409 -120.639721 306 21990ft 359kts
28-Aug-18 21:09 46.719875 -120.758498 307 20595ft 357kts
28-Aug-18 21:10 46.776655 -120.878447 307 19193ft 360kts
28-Aug-18 21:11 46.822038 -120.974823 306 18109ft 322kts
28-Aug-18 21:12 46.882618 -121.103532 306 16744ft 341kts
28-Aug-18 21:13 46.927939 -121.200172 303 15745ft 342kts
28-Aug-18 21:14 46.977301 -121.305598 302 14574ft 312kts
28-Aug-18 21:15 47.025258 -121.409119 301 13371ft 298kts
28-Aug-18 21:16 47.070228 -121.506595 302 12220ft 285kts
28-Aug-18 21:17 47.124428 -121.624546 302 11908ft 298kts
28-Aug-18 21:18 47.161304 -121.705098 303 10792ft 280kts
28-Aug-18 21:19 47.201007 -121.803742 297 8895ft 279kts
28-Aug-18 21:20 47.235771 -121.901019 297 6850ft 264kts
28-Aug-18 21:21 47.266496 -121.992258 297 5852ft 227kts
28-Aug-18 21:22 47.295702 -122.078023 298 3878ft 238kts
28-Aug-18 21:23 47.336363 -122.151228 340 2690ft 228kts
28-Aug-18 21:24 47.391974 -122.183935 330 2617ft 207kts
28-Aug-18 21:25 47.435683 -122.221659 331 1881ft 152kts
28-Aug-18 21:26 47.469617 -122.251333 331 1266ft 136kts
28-Aug-18 21:27 47.499549 -122.276554 329 509ft 118kts
28-Aug-18 21:28 47.526438 -122.299757 330 22ft 76kts
28-Aug-18 21:29 47.529039 -122.301066 61 22ft 0kts
28-Aug-18 21:30 47.530168 -122.298141 188 22ft 0kts

Navigation Log

Ident Type
Flight plan parsing failed, navigation log unavailable